sensor_id;sensor_type;location;lat;lon;timestamp;P1;durP1;ratioP1;P2;durP2;ratioP2
9438;SDS011;5176;42.622;25.386;2024-02-21T00:00:55;28.37;;;16.93;;
9438;SDS011;5176;42.622;25.386;2024-02-21T00:03:22;28.97;;;17.87;;
9438;SDS011;5176;42.622;25.386;2024-02-21T00:05:50;28.10;;;18.07;;
9438;SDS011;5176;42.622;25.386;2024-02-21T00:08:17;29.13;;;18.93;;
9438;SDS011;5176;42.622;25.386;2024-02-21T00:10:46;30.30;;;17.23;;
9438;SDS011;5176;42.622;25.386;2024-02-21T00:13:14;31.50;;;19.60;;
9438;SDS011;5176;42.622;25.386;2024-02-21T00:15:42;37.03;;;21.80;;
9438;SDS011;5176;42.622;25.386;2024-02-21T00:18:09;30.83;;;20.20;;
9438;SDS011;5176;42.622;25.386;2024-02-21T00:20:37;33.63;;;20.43;;
9438;SDS011;5176;42.622;25.386;2024-02-21T00:23:05;28.43;;;19.23;;
9438;SDS011;5176;42.622;25.386;2024-02-21T00:25:32;31.30;;;20.53;;
9438;SDS011;5176;42.622;25.386;2024-02-21T00:28:01;31.67;;;20.07;;
9438;SDS011;5176;42.622;25.386;2024-02-21T00:30:31;32.37;;;19.60;;
9438;SDS011;5176;42.622;25.386;2024-02-21T00:32:58;31.40;;;20.37;;
9438;SDS011;5176;42.622;25.386;2024-02-21T00:35:26;33.53;;;20.93;;
9438;SDS011;5176;42.622;25.386;2024-02-21T00:37:53;34.83;;;22.23;;
9438;SDS011;5176;42.622;25.386;2024-02-21T00:40:22;32.77;;;21.13;;
9438;SDS011;5176;42.622;25.386;2024-02-21T00:42:49;33.73;;;20.33;;
9438;SDS011;5176;42.622;25.386;2024-02-21T00:45:18;32.53;;;20.40;;
9438;SDS011;5176;42.622;25.386;2024-02-21T00:47:45;31.27;;;19.27;;
9438;SDS011;5176;42.622;25.386;2024-02-21T00:50:13;27.60;;;18.87;;
9438;SDS011;5176;42.622;25.386;2024-02-21T00:52:40;31.77;;;18.53;;
9438;SDS011;5176;42.622;25.386;2024-02-21T00:55:08;25.43;;;16.37;;
9438;SDS011;5176;42.622;25.386;2024-02-21T00:57:36;25.60;;;17.30;;
9438;SDS011;5176;42.622;25.386;2024-02-21T01:00:03;27.53;;;17.43;;
9438;SDS011;5176;42.622;25.386;2024-02-21T01:02:34;29.80;;;18.13;;
9438;SDS011;5176;42.622;25.386;2024-02-21T01:05:02;32.97;;;16.70;;
9438;SDS011;5176;42.622;25.386;2024-02-21T01:07:30;26.53;;;15.97;;
9438;SDS011;5176;42.622;25.386;2024-02-21T01:09:57;28.00;;;17.97;;
9438;SDS011;5176;42.622;25.386;2024-02-21T01:12:25;29.53;;;18.47;;
9438;SDS011;5176;42.622;25.386;2024-02-21T01:14:52;30.83;;;18.77;;
9438;SDS011;5176;42.622;25.386;2024-02-21T01:17:19;28.60;;;18.70;;
9438;SDS011;5176;42.622;25.386;2024-02-21T01:19:48;26.37;;;18.07;;
9438;SDS011;5176;42.622;25.386;2024-02-21T01:22:16;27.57;;;17.00;;
9438;SDS011;5176;42.622;25.386;2024-02-21T01:24:43;27.93;;;18.30;;
9438;SDS011;5176;42.622;25.386;2024-02-21T01:27:10;28.40;;;17.07;;
9438;SDS011;5176;42.622;25.386;2024-02-21T01:29:38;25.53;;;16.63;;
9438;SDS011;5176;42.622;25.386;2024-02-21T01:32:06;26.53;;;16.83;;
9438;SDS011;5176;42.622;25.386;2024-02-21T01:34:34;25.87;;;17.00;;
9438;SDS011;5176;42.622;25.386;2024-02-21T01:37:04;26.83;;;16.60;;
9438;SDS011;5176;42.622;25.386;2024-02-21T01:39:32;26.50;;;16.57;;
9438;SDS011;5176;42.622;25.386;2024-02-21T01:42:00;27.67;;;17.10;;
9438;SDS011;5176;42.622;25.386;2024-02-21T01:44:28;28.27;;;17.30;;
9438;SDS011;5176;42.622;25.386;2024-02-21T01:46:55;24.07;;;16.07;;
9438;SDS011;5176;42.622;25.386;2024-02-21T01:49:23;26.40;;;17.27;;
9438;SDS011;5176;42.622;25.386;2024-02-21T01:51:51;26.47;;;18.00;;
9438;SDS011;5176;42.622;25.386;2024-02-21T01:54:21;27.70;;;19.03;;
9438;SDS011;5176;42.622;25.386;2024-02-21T01:56:49;28.20;;;18.03;;
9438;SDS011;5176;42.622;25.386;2024-02-21T01:59:18;26.23;;;16.90;;
9438;SDS011;5176;42.622;25.386;2024-02-21T02:01:46;28.40;;;17.63;;
9438;SDS011;5176;42.622;25.386;2024-02-21T02:04:14;28.17;;;17.93;;
9438;SDS011;5176;42.622;25.386;2024-02-21T02:06:41;30.60;;;17.43;;
9438;SDS011;5176;42.622;25.386;2024-02-21T02:09:09;28.13;;;18.10;;
9438;SDS011;5176;42.622;25.386;2024-02-21T02:11:38;29.33;;;20.03;;
9438;SDS011;5176;42.622;25.386;2024-02-21T02:14:06;35.40;;;23.93;;
9438;SDS011;5176;42.622;25.386;2024-02-21T02:16:33;33.37;;;21.43;;
9438;SDS011;5176;42.622;25.386;2024-02-21T02:19:01;29.37;;;18.67;;
9438;SDS011;5176;42.622;25.386;2024-02-21T02:21:29;28.67;;;18.57;;
9438;SDS011;5176;42.622;25.386;2024-02-21T02:24:00;33.80;;;18.83;;
9438;SDS011;5176;42.622;25.386;2024-02-21T02:26:28;32.03;;;19.23;;
9438;SDS011;5176;42.622;25.386;2024-02-21T02:28:56;30.97;;;19.13;;
9438;SDS011;5176;42.622;25.386;2024-02-21T02:31:23;33.03;;;19.73;;
9438;SDS011;5176;42.622;25.386;2024-02-21T02:33:50;30.30;;;18.73;;
9438;SDS011;5176;42.622;25.386;2024-02-21T02:36:18;33.23;;;21.30;;
9438;SDS011;5176;42.622;25.386;2024-02-21T02:38:45;33.03;;;20.67;;
9438;SDS011;5176;42.622;25.386;2024-02-21T02:41:14;30.30;;;19.87;;
9438;SDS011;5176;42.622;25.386;2024-02-21T02:43:42;30.50;;;20.77;;
9438;SDS011;5176;42.622;25.386;2024-02-21T02:46:09;31.23;;;21.03;;
9438;SDS011;5176;42.622;25.386;2024-02-21T02:48:37;33.30;;;20.73;;
9438;SDS011;5176;42.622;25.386;2024-02-21T02:51:04;35.47;;;21.47;;
9438;SDS011;5176;42.622;25.386;2024-02-21T02:53:32;34.40;;;20.37;;
9438;SDS011;5176;42.622;25.386;2024-02-21T02:55:59;28.90;;;19.87;;
9438;SDS011;5176;42.622;25.386;2024-02-21T02:58:28;32.17;;;21.17;;
9438;SDS011;5176;42.622;25.386;2024-02-21T03:00:55;30.00;;;20.40;;
9438;SDS011;5176;42.622;25.386;2024-02-21T03:03:23;31.03;;;20.33;;
9438;SDS011;5176;42.622;25.386;2024-02-21T03:05:50;31.50;;;21.40;;
9438;SDS011;5176;42.622;25.386;2024-02-21T03:08:18;32.93;;;20.30;;
9438;SDS011;5176;42.622;25.386;2024-02-21T03:10:45;30.53;;;20.17;;
9438;SDS011;5176;42.622;25.386;2024-02-21T03:13:12;35.33;;;24.07;;
9438;SDS011;5176;42.622;25.386;2024-02-21T03:15:41;37.00;;;24.27;;
9438;SDS011;5176;42.622;25.386;2024-02-21T03:18:09;39.93;;;24.87;;
9438;SDS011;5176;42.622;25.386;2024-02-21T03:20:36;36.90;;;23.10;;
9438;SDS011;5176;42.622;25.386;2024-02-21T03:23:04;36.33;;;23.97;;
9438;SDS011;5176;42.622;25.386;2024-02-21T03:25:31;53.10;;;33.23;;
9438;SDS011;5176;42.622;25.386;2024-02-21T03:27:58;65.13;;;38.80;;
9438;SDS011;5176;42.622;25.386;2024-02-21T03:30:27;56.30;;;33.07;;
9438;SDS011;5176;42.622;25.386;2024-02-21T03:32:56;50.63;;;32.37;;
9438;SDS011;5176;42.622;25.386;2024-02-21T03:35:23;44.57;;;28.50;;
9438;SDS011;5176;42.622;25.386;2024-02-21T03:37:53;37.70;;;24.57;;
9438;SDS011;5176;42.622;25.386;2024-02-21T03:40:20;34.93;;;21.87;;
9438;SDS011;5176;42.622;25.386;2024-02-21T03:42:48;35.27;;;21.63;;
9438;SDS011;5176;42.622;25.386;2024-02-21T03:45:15;29.23;;;20.17;;
9438;SDS011;5176;42.622;25.386;2024-02-21T03:47:43;30.90;;;20.23;;
9438;SDS011;5176;42.622;25.386;2024-02-21T03:50:12;31.33;;;20.10;;
9438;SDS011;5176;42.622;25.386;2024-02-21T03:52:39;31.47;;;18.87;;
9438;SDS011;5176;42.622;25.386;2024-02-21T03:55:07;32.43;;;19.67;;
9438;SDS011;5176;42.622;25.386;2024-02-21T03:57:35;30.23;;;19.63;;
9438;SDS011;5176;42.622;25.386;2024-02-21T04:00:03;33.67;;;19.70;;
9438;SDS011;5176;42.622;25.386;2024-02-21T04:02:36;29.57;;;19.40;;
9438;SDS011;5176;42.622;25.386;2024-02-21T04:05:04;34.70;;;21.30;;
9438;SDS011;5176;42.622;25.386;2024-02-21T04:07:36;40.33;;;24.37;;
9438;SDS011;5176;42.622;25.386;2024-02-21T04:10:04;40.93;;;25.50;;
9438;SDS011;5176;42.622;25.386;2024-02-21T04:12:31;38.73;;;23.33;;
9438;SDS011;5176;42.622;25.386;2024-02-21T04:14:59;33.73;;;21.77;;
9438;SDS011;5176;42.622;25.386;2024-02-21T04:17:26;35.97;;;22.50;;
9438;SDS011;5176;42.622;25.386;2024-02-21T04:19:56;33.67;;;21.60;;
9438;SDS011;5176;42.622;25.386;2024-02-21T04:22:30;32.63;;;20.60;;
9438;SDS011;5176;42.622;25.386;2024-02-21T04:25:00;28.83;;;21.00;;
9438;SDS011;5176;42.622;25.386;2024-02-21T04:27:28;29.63;;;20.10;;
9438;SDS011;5176;42.622;25.386;2024-02-21T04:29:55;33.03;;;21.27;;
9438;SDS011;5176;42.622;25.386;2024-02-21T04:32:23;33.23;;;21.17;;
9438;SDS011;5176;42.622;25.386;2024-02-21T04:34:52;31.87;;;20.73;;
9438;SDS011;5176;42.622;25.386;2024-02-21T04:37:20;29.80;;;19.47;;
9438;SDS011;5176;42.622;25.386;2024-02-21T04:39:48;29.30;;;19.60;;
9438;SDS011;5176;42.622;25.386;2024-02-21T04:42:17;30.80;;;20.87;;
9438;SDS011;5176;42.622;25.386;2024-02-21T04:44:44;33.90;;;19.53;;
9438;SDS011;5176;42.622;25.386;2024-02-21T04:47:12;39.13;;;22.33;;
9438;SDS011;5176;42.622;25.386;2024-02-21T04:49:39;35.23;;;22.50;;
9438;SDS011;5176;42.622;25.386;2024-02-21T04:52:06;33.13;;;21.43;;
9438;SDS011;5176;42.622;25.386;2024-02-21T04:54:34;31.17;;;20.43;;
9438;SDS011;5176;42.622;25.386;2024-02-21T04:57:02;30.80;;;21.23;;
9438;SDS011;5176;42.622;25.386;2024-02-21T04:59:31;39.17;;;25.40;;
9438;SDS011;5176;42.622;25.386;2024-02-21T05:02:00;37.60;;;22.43;;
9438;SDS011;5176;42.622;25.386;2024-02-21T05:04:27;31.87;;;20.97;;
9438;SDS011;5176;42.622;25.386;2024-02-21T05:06:55;32.93;;;22.60;;
9438;SDS011;5176;42.622;25.386;2024-02-21T05:09:22;33.83;;;22.83;;
9438;SDS011;5176;42.622;25.386;2024-02-21T05:11:49;32.13;;;20.97;;
9438;SDS011;5176;42.622;25.386;2024-02-21T05:14:16;32.20;;;20.67;;
9438;SDS011;5176;42.622;25.386;2024-02-21T05:16:45;35.23;;;23.13;;
9438;SDS011;5176;42.622;25.386;2024-02-21T05:19:12;103.93;;;51.07;;
9438;SDS011;5176;42.622;25.386;2024-02-21T05:21:39;34.70;;;20.93;;
9438;SDS011;5176;42.622;25.386;2024-02-21T05:24:08;41.00;;;26.40;;
9438;SDS011;5176;42.622;25.386;2024-02-21T05:26:40;29.27;;;19.70;;
9438;SDS011;5176;42.622;25.386;2024-02-21T05:29:07;103.87;;;50.57;;
9438;SDS011;5176;42.622;25.386;2024-02-21T05:31:43;81.97;;;45.33;;
9438;SDS011;5176;42.622;25.386;2024-02-21T05:34:23;31.60;;;19.07;;
9438;SDS011;5176;42.622;25.386;2024-02-21T05:36:51;45.07;;;27.27;;
9438;SDS011;5176;42.622;25.386;2024-02-21T05:39:19;29.33;;;19.00;;
9438;SDS011;5176;42.622;25.386;2024-02-21T05:41:48;40.37;;;25.67;;
9438;SDS011;5176;42.622;25.386;2024-02-21T05:44:16;28.50;;;20.33;;
9438;SDS011;5176;42.622;25.386;2024-02-21T05:46:43;33.60;;;23.73;;
9438;SDS011;5176;42.622;25.386;2024-02-21T05:49:12;34.67;;;22.60;;
9438;SDS011;5176;42.622;25.386;2024-02-21T05:51:39;31.67;;;20.03;;
9438;SDS011;5176;42.622;25.386;2024-02-21T05:54:07;33.43;;;18.17;;
9438;SDS011;5176;42.622;25.386;2024-02-21T05:56:34;29.80;;;19.13;;
9438;SDS011;5176;42.622;25.386;2024-02-21T05:59:01;29.27;;;18.70;;
9438;SDS011;5176;42.622;25.386;2024-02-21T06:01:28;27.60;;;19.50;;
9438;SDS011;5176;42.622;25.386;2024-02-21T06:03:56;30.53;;;19.47;;
9438;SDS011;5176;42.622;25.386;2024-02-21T06:06:24;29.10;;;19.87;;
9438;SDS011;5176;42.622;25.386;2024-02-21T06:08:51;27.33;;;18.20;;
9438;SDS011;5176;42.622;25.386;2024-02-21T06:11:19;26.33;;;16.47;;
9438;SDS011;5176;42.622;25.386;2024-02-21T06:13:46;27.17;;;17.40;;
9438;SDS011;5176;42.622;25.386;2024-02-21T06:16:13;30.10;;;19.33;;
9438;SDS011;5176;42.622;25.386;2024-02-21T06:18:40;28.27;;;17.90;;
9438;SDS011;5176;42.622;25.386;2024-02-21T06:21:08;24.70;;;16.47;;
9438;SDS011;5176;42.622;25.386;2024-02-21T06:23:37;28.57;;;17.40;;
9438;SDS011;5176;42.622;25.386;2024-02-21T06:26:05;24.97;;;17.50;;
9438;SDS011;5176;42.622;25.386;2024-02-21T06:28:32;28.30;;;18.23;;
9438;SDS011;5176;42.622;25.386;2024-02-21T06:30:59;32.87;;;20.73;;
9438;SDS011;5176;42.622;25.386;2024-02-21T06:33:26;31.20;;;19.50;;
9438;SDS011;5176;42.622;25.386;2024-02-21T06:35:54;29.40;;;19.57;;
9438;SDS011;5176;42.622;25.386;2024-02-21T06:38:22;30.30;;;19.47;;
9438;SDS011;5176;42.622;25.386;2024-02-21T06:40:50;28.93;;;20.07;;
9438;SDS011;5176;42.622;25.386;2024-02-21T06:43:20;27.57;;;19.40;;
9438;SDS011;5176;42.622;25.386;2024-02-21T06:45:47;29.73;;;19.37;;
9438;SDS011;5176;42.622;25.386;2024-02-21T06:48:16;28.10;;;18.13;;
9438;SDS011;5176;42.622;25.386;2024-02-21T06:50:45;32.63;;;22.07;;
9438;SDS011;5176;42.622;25.386;2024-02-21T06:53:13;31.67;;;21.70;;
9438;SDS011;5176;42.622;25.386;2024-02-21T06:55:40;31.40;;;21.07;;
9438;SDS011;5176;42.622;25.386;2024-02-21T06:58:09;36.07;;;22.57;;
9438;SDS011;5176;42.622;25.386;2024-02-21T07:00:37;34.53;;;22.23;;
9438;SDS011;5176;42.622;25.386;2024-02-21T07:03:05;32.23;;;21.93;;
9438;SDS011;5176;42.622;25.386;2024-02-21T07:05:33;32.07;;;20.47;;
9438;SDS011;5176;42.622;25.386;2024-02-21T07:08:00;41.07;;;26.10;;
9438;SDS011;5176;42.622;25.386;2024-02-21T07:10:28;40.77;;;28.30;;
9438;SDS011;5176;42.622;25.386;2024-02-21T07:12:55;34.20;;;22.30;;
9438;SDS011;5176;42.622;25.386;2024-02-21T07:15:24;35.17;;;23.87;;
9438;SDS011;5176;42.622;25.386;2024-02-21T07:17:53;37.23;;;24.67;;
9438;SDS011;5176;42.622;25.386;2024-02-21T07:20:21;43.67;;;27.07;;
9438;SDS011;5176;42.622;25.386;2024-02-21T07:22:48;37.90;;;25.57;;
9438;SDS011;5176;42.622;25.386;2024-02-21T07:25:15;34.50;;;24.10;;
9438;SDS011;5176;42.622;25.386;2024-02-21T07:27:43;36.40;;;23.50;;
9438;SDS011;5176;42.622;25.386;2024-02-21T07:30:11;34.03;;;24.53;;
9438;SDS011;5176;42.622;25.386;2024-02-21T07:32:41;35.63;;;22.60;;
9438;SDS011;5176;42.622;25.386;2024-02-21T07:35:08;34.80;;;23.60;;
9438;SDS011;5176;42.622;25.386;2024-02-21T07:37:37;34.47;;;21.47;;
9438;SDS011;5176;42.622;25.386;2024-02-21T07:40:05;32.73;;;22.17;;
9438;SDS011;5176;42.622;25.386;2024-02-21T07:42:33;30.00;;;20.60;;
9438;SDS011;5176;42.622;25.386;2024-02-21T07:45:00;33.13;;;20.50;;
9438;SDS011;5176;42.622;25.386;2024-02-21T07:47:28;29.57;;;19.83;;
9438;SDS011;5176;42.622;25.386;2024-02-21T07:49:57;29.70;;;19.60;;
9438;SDS011;5176;42.622;25.386;2024-02-21T07:52:25;27.27;;;17.37;;
9438;SDS011;5176;42.622;25.386;2024-02-21T07:54:52;28.10;;;17.13;;
9438;SDS011;5176;42.622;25.386;2024-02-21T07:57:19;25.80;;;17.03;;
9438;SDS011;5176;42.622;25.386;2024-02-21T07:59:47;29.33;;;18.83;;
9438;SDS011;5176;42.622;25.386;2024-02-21T08:02:14;25.40;;;17.40;;
9438;SDS011;5176;42.622;25.386;2024-02-21T08:04:42;25.33;;;18.03;;
9438;SDS011;5176;42.622;25.386;2024-02-21T08:07:11;23.20;;;16.80;;
9438;SDS011;5176;42.622;25.386;2024-02-21T08:09:39;25.63;;;16.93;;
9438;SDS011;5176;42.622;25.386;2024-02-21T08:12:06;24.00;;;16.67;;
9438;SDS011;5176;42.622;25.386;2024-02-21T08:14:35;25.00;;;17.30;;
9438;SDS011;5176;42.622;25.386;2024-02-21T08:17:02;22.30;;;16.90;;
9438;SDS011;5176;42.622;25.386;2024-02-21T08:19:29;22.73;;;16.73;;
9438;SDS011;5176;42.622;25.386;2024-02-21T08:21:57;27.80;;;18.13;;
9438;SDS011;5176;42.622;25.386;2024-02-21T08:24:25;23.17;;;16.63;;
9438;SDS011;5176;42.622;25.386;2024-02-21T08:26:53;26.53;;;17.17;;
9438;SDS011;5176;42.622;25.386;2024-02-21T08:29:20;25.17;;;17.83;;
9438;SDS011;5176;42.622;25.386;2024-02-21T08:31:48;26.60;;;17.33;;
9438;SDS011;5176;42.622;25.386;2024-02-21T08:34:15;23.87;;;17.57;;
9438;SDS011;5176;42.622;25.386;2024-02-21T08:36:43;25.10;;;19.20;;
9438;SDS011;5176;42.622;25.386;2024-02-21T08:39:10;24.30;;;16.87;;
9438;SDS011;5176;42.622;25.386;2024-02-21T08:41:43;23.10;;;16.47;;
9438;SDS011;5176;42.622;25.386;2024-02-21T08:44:10;25.03;;;17.03;;
9438;SDS011;5176;42.622;25.386;2024-02-21T08:46:38;23.67;;;16.27;;
9438;SDS011;5176;42.622;25.386;2024-02-21T08:49:05;20.83;;;14.77;;
9438;SDS011;5176;42.622;25.386;2024-02-21T08:51:32;22.20;;;16.13;;
9438;SDS011;5176;42.622;25.386;2024-02-21T08:54:00;25.10;;;17.63;;
9438;SDS011;5176;42.622;25.386;2024-02-21T08:56:29;23.47;;;16.57;;
9438;SDS011;5176;42.622;25.386;2024-02-21T08:58:59;25.27;;;16.93;;
9438;SDS011;5176;42.622;25.386;2024-02-21T09:01:27;25.17;;;16.63;;
9438;SDS011;5176;42.622;25.386;2024-02-21T09:03:54;19.07;;;14.20;;
9438;SDS011;5176;42.622;25.386;2024-02-21T09:06:22;19.83;;;15.10;;
9438;SDS011;5176;42.622;25.386;2024-02-21T09:08:49;25.23;;;17.93;;
9438;SDS011;5176;42.622;25.386;2024-02-21T09:11:17;22.50;;;16.90;;
9438;SDS011;5176;42.622;25.386;2024-02-21T09:13:44;23.60;;;16.60;;
9438;SDS011;5176;42.622;25.386;2024-02-21T09:16:12;23.07;;;15.37;;
9438;SDS011;5176;42.622;25.386;2024-02-21T09:18:40;23.97;;;16.73;;
9438;SDS011;5176;42.622;25.386;2024-02-21T09:21:07;27.23;;;20.17;;
9438;SDS011;5176;42.622;25.386;2024-02-21T09:23:35;23.77;;;17.00;;
9438;SDS011;5176;42.622;25.386;2024-02-21T09:26:02;22.50;;;17.43;;
9438;SDS011;5176;42.622;25.386;2024-02-21T09:28:30;22.43;;;16.80;;
9438;SDS011;5176;42.622;25.386;2024-02-21T09:30:58;23.83;;;16.50;;
9438;SDS011;5176;42.622;25.386;2024-02-21T09:33:27;24.57;;;15.17;;
9438;SDS011;5176;42.622;25.386;2024-02-21T09:35:54;22.97;;;15.30;;
9438;SDS011;5176;42.622;25.386;2024-02-21T09:38:21;25.97;;;17.23;;
9438;SDS011;5176;42.622;25.386;2024-02-21T09:40:51;25.70;;;16.07;;
9438;SDS011;5176;42.622;25.386;2024-02-21T09:43:25;18.83;;;14.13;;
9438;SDS011;5176;42.622;25.386;2024-02-21T09:45:54;23.87;;;16.27;;
9438;SDS011;5176;42.622;25.386;2024-02-21T09:48:29;22.80;;;15.27;;
9438;SDS011;5176;42.622;25.386;2024-02-21T09:51:07;18.38;;;13.20;;
9438;SDS011;5176;42.622;25.386;2024-02-21T09:53:36;16.73;;;12.90;;
9438;SDS011;5176;42.622;25.386;2024-02-21T09:56:05;16.20;;;11.43;;
9438;SDS011;5176;42.622;25.386;2024-02-21T09:58:35;13.13;;;10.37;;
9438;SDS011;5176;42.622;25.386;2024-02-21T10:01:03;18.55;;;12.98;;
9438;SDS011;5176;42.622;25.386;2024-02-21T10:03:33;16.97;;;12.63;;
9438;SDS011;5176;42.622;25.386;2024-02-21T10:06:01;13.57;;;10.63;;
9438;SDS011;5176;42.622;25.386;2024-02-21T10:08:28;18.75;;;12.10;;
9438;SDS011;5176;42.622;25.386;2024-02-21T10:10:56;18.63;;;14.95;;
9438;SDS011;5176;42.622;25.386;2024-02-21T10:13:25;15.02;;;11.88;;
9438;SDS011;5176;42.622;25.386;2024-02-21T10:16:03;17.23;;;10.88;;
9438;SDS011;5176;42.622;25.386;2024-02-21T10:18:33;12.52;;;9.35;;
9438;SDS011;5176;42.622;25.386;2024-02-21T10:21:01;11.25;;;9.35;;
9438;SDS011;5176;42.622;25.386;2024-02-21T10:23:40;12.70;;;8.63;;
9438;SDS011;5176;42.622;25.386;2024-02-21T10:26:11;13.35;;;10.38;;
9438;SDS011;5176;42.622;25.386;2024-02-21T10:28:38;11.02;;;9.18;;
9438;SDS011;5176;42.622;25.386;2024-02-21T10:31:07;10.53;;;6.97;;
9438;SDS011;5176;42.622;25.386;2024-02-21T10:33:37;7.97;;;6.77;;
9438;SDS011;5176;42.622;25.386;2024-02-21T10:36:08;8.70;;;7.33;;
9438;SDS011;5176;42.622;25.386;2024-02-21T10:38:38;9.27;;;6.37;;
9438;SDS011;5176;42.622;25.386;2024-02-21T10:41:06;6.57;;;5.53;;
9438;SDS011;5176;42.622;25.386;2024-02-21T10:43:37;6.37;;;5.30;;
9438;SDS011;5176;42.622;25.386;2024-02-21T10:46:08;7.00;;;6.03;;
9438;SDS011;5176;42.622;25.386;2024-02-21T10:48:48;6.77;;;5.77;;
9438;SDS011;5176;42.622;25.386;2024-02-21T10:51:23;7.83;;;6.10;;
9438;SDS011;5176;42.622;25.386;2024-02-21T10:53:55;5.80;;;4.97;;
9438;SDS011;5176;42.622;25.386;2024-02-21T10:56:29;6.17;;;4.57;;
9438;SDS011;5176;42.622;25.386;2024-02-21T10:59:01;8.20;;;6.03;;
9438;SDS011;5176;42.622;25.386;2024-02-21T11:01:29;9.07;;;6.37;;
9438;SDS011;5176;42.622;25.386;2024-02-21T11:03:59;8.60;;;6.63;;
9438;SDS011;5176;42.622;25.386;2024-02-21T11:06:29;6.40;;;4.60;;
9438;SDS011;5176;42.622;25.386;2024-02-21T11:09:03;4.07;;;3.67;;
9438;SDS011;5176;42.622;25.386;2024-02-21T11:11:34;3.60;;;3.23;;
9438;SDS011;5176;42.622;25.386;2024-02-21T11:14:09;5.13;;;3.97;;
9438;SDS011;5176;42.622;25.386;2024-02-21T11:16:40;5.10;;;4.30;;
9438;SDS011;5176;42.622;25.386;2024-02-21T11:19:10;6.03;;;5.03;;
9438;SDS011;5176;42.622;25.386;2024-02-21T11:21:47;5.73;;;5.00;;
9438;SDS011;5176;42.622;25.386;2024-02-21T11:24:16;5.90;;;4.73;;
9438;SDS011;5176;42.622;25.386;2024-02-21T11:26:53;9.20;;;7.97;;
9438;SDS011;5176;42.622;25.386;2024-02-21T11:29:23;6.30;;;5.00;;
9438;SDS011;5176;42.622;25.386;2024-02-21T11:31:51;7.37;;;5.27;;
9438;SDS011;5176;42.622;25.386;2024-02-21T11:34:20;7.43;;;6.50;;
9438;SDS011;5176;42.622;25.386;2024-02-21T11:36:48;8.43;;;6.97;;
9438;SDS011;5176;42.622;25.386;2024-02-21T11:39:19;9.13;;;6.60;;
9438;SDS011;5176;42.622;25.386;2024-02-21T11:41:58;10.53;;;7.43;;
9438;SDS011;5176;42.622;25.386;2024-02-21T11:44:29;8.10;;;6.13;;
9438;SDS011;5176;42.622;25.386;2024-02-21T11:46:57;7.33;;;5.33;;
9438;SDS011;5176;42.622;25.386;2024-02-21T11:49:28;8.03;;;6.00;;
9438;SDS011;5176;42.622;25.386;2024-02-21T11:51:59;8.30;;;6.17;;
9438;SDS011;5176;42.622;25.386;2024-02-21T11:54:29;7.03;;;6.00;;
9438;SDS011;5176;42.622;25.386;2024-02-21T11:56:56;9.53;;;7.27;;
9438;SDS011;5176;42.622;25.386;2024-02-21T11:59:24;7.67;;;5.77;;
9438;SDS011;5176;42.622;25.386;2024-02-21T12:01:52;9.40;;;5.60;;
9438;SDS011;5176;42.622;25.386;2024-02-21T12:04:20;7.60;;;5.80;;
9438;SDS011;5176;42.622;25.386;2024-02-21T12:06:50;6.00;;;5.40;;
9438;SDS011;5176;42.622;25.386;2024-02-21T12:09:19;5.17;;;4.40;;
9438;SDS011;5176;42.622;25.386;2024-02-21T12:11:56;6.47;;;4.73;;
9438;SDS011;5176;42.622;25.386;2024-02-21T12:14:24;6.17;;;5.20;;
9438;SDS011;5176;42.622;25.386;2024-02-21T12:16:53;6.13;;;4.87;;
9438;SDS011;5176;42.622;25.386;2024-02-21T12:19:21;20.13;;;12.40;;
9438;SDS011;5176;42.622;25.386;2024-02-21T12:21:50;13.57;;;9.10;;
9438;SDS011;5176;42.622;25.386;2024-02-21T12:24:21;20.37;;;12.83;;
9438;SDS011;5176;42.622;25.386;2024-02-21T12:26:49;8.10;;;6.30;;
9438;SDS011;5176;42.622;25.386;2024-02-21T12:29:17;6.63;;;5.43;;
9438;SDS011;5176;42.622;25.386;2024-02-21T12:31:45;6.90;;;5.70;;
9438;SDS011;5176;42.622;25.386;2024-02-21T12:34:13;9.03;;;5.73;;
9438;SDS011;5176;42.622;25.386;2024-02-21T12:36:41;13.37;;;8.13;;
9438;SDS011;5176;42.622;25.386;2024-02-21T12:39:10;8.87;;;6.00;;
9438;SDS011;5176;42.622;25.386;2024-02-21T12:41:38;8.00;;;5.63;;
9438;SDS011;5176;42.622;25.386;2024-02-21T12:44:06;5.40;;;4.30;;
9438;SDS011;5176;42.622;25.386;2024-02-21T12:46:34;5.83;;;5.00;;
9438;SDS011;5176;42.622;25.386;2024-02-21T12:49:01;7.63;;;6.13;;
9438;SDS011;5176;42.622;25.386;2024-02-21T12:51:28;6.43;;;5.57;;
9438;SDS011;5176;42.622;25.386;2024-02-21T12:53:56;5.70;;;5.10;;
9438;SDS011;5176;42.622;25.386;2024-02-21T12:56:25;13.47;;;9.83;;
9438;SDS011;5176;42.622;25.386;2024-02-21T12:58:53;9.63;;;7.47;;
9438;SDS011;5176;42.622;25.386;2024-02-21T13:01:20;8.10;;;6.20;;
9438;SDS011;5176;42.622;25.386;2024-02-21T13:03:48;5.97;;;4.70;;
9438;SDS011;5176;42.622;25.386;2024-02-21T13:06:15;7.67;;;5.87;;
9438;SDS011;5176;42.622;25.386;2024-02-21T13:08:44;7.13;;;5.60;;
9438;SDS011;5176;42.622;25.386;2024-02-21T13:11:12;6.30;;;5.23;;
9438;SDS011;5176;42.622;25.386;2024-02-21T13:13:41;7.87;;;5.90;;
9438;SDS011;5176;42.622;25.386;2024-02-21T13:16:09;5.27;;;4.77;;
9438;SDS011;5176;42.622;25.386;2024-02-21T13:18:39;7.67;;;6.07;;
9438;SDS011;5176;42.622;25.386;2024-02-21T13:21:08;10.83;;;8.90;;
9438;SDS011;5176;42.622;25.386;2024-02-21T13:23:36;9.50;;;7.27;;
9438;SDS011;5176;42.622;25.386;2024-02-21T13:26:03;7.03;;;5.57;;
9438;SDS011;5176;42.622;25.386;2024-02-21T13:28:30;6.70;;;5.00;;
9438;SDS011;5176;42.622;25.386;2024-02-21T13:30:59;6.87;;;5.97;;
9438;SDS011;5176;42.622;25.386;2024-02-21T13:33:27;9.30;;;6.63;;
9438;SDS011;5176;42.622;25.386;2024-02-21T13:35:55;9.03;;;7.57;;
9438;SDS011;5176;42.622;25.386;2024-02-21T13:38:22;10.43;;;8.30;;
9438;SDS011;5176;42.622;25.386;2024-02-21T13:40:49;15.67;;;13.70;;
9438;SDS011;5176;42.622;25.386;2024-02-21T13:43:17;16.70;;;13.20;;
9438;SDS011;5176;42.622;25.386;2024-02-21T13:45:54;14.70;;;10.43;;
9438;SDS011;5176;42.622;25.386;2024-02-21T13:48:24;9.30;;;7.23;;
9438;SDS011;5176;42.622;25.386;2024-02-21T13:50:52;9.43;;;7.07;;
9438;SDS011;5176;42.622;25.386;2024-02-21T13:53:19;15.67;;;12.07;;
9438;SDS011;5176;42.622;25.386;2024-02-21T13:55:48;11.43;;;9.00;;
9438;SDS011;5176;42.622;25.386;2024-02-21T13:58:15;5.53;;;4.63;;
9438;SDS011;5176;42.622;25.386;2024-02-21T14:00:43;4.50;;;4.10;;
9438;SDS011;5176;42.622;25.386;2024-02-21T14:03:10;7.90;;;5.63;;
9438;SDS011;5176;42.622;25.386;2024-02-21T14:05:39;8.73;;;6.53;;
9438;SDS011;5176;42.622;25.386;2024-02-21T14:08:06;6.23;;;5.23;;
9438;SDS011;5176;42.622;25.386;2024-02-21T14:10:34;7.63;;;5.17;;
9438;SDS011;5176;42.622;25.386;2024-02-21T14:13:02;8.53;;;5.23;;
9438;SDS011;5176;42.622;25.386;2024-02-21T14:15:30;9.83;;;7.67;;
9438;SDS011;5176;42.622;25.386;2024-02-21T14:17:57;6.60;;;4.70;;
9438;SDS011;5176;42.622;25.386;2024-02-21T14:20:24;5.67;;;5.03;;
9438;SDS011;5176;42.622;25.386;2024-02-21T14:22:53;4.97;;;4.17;;
9438;SDS011;5176;42.622;25.386;2024-02-21T14:25:21;4.43;;;4.03;;
9438;SDS011;5176;42.622;25.386;2024-02-21T14:27:48;5.77;;;4.90;;
9438;SDS011;5176;42.622;25.386;2024-02-21T14:30:16;5.50;;;4.60;;
9438;SDS011;5176;42.622;25.386;2024-02-21T14:32:44;5.67;;;5.07;;
9438;SDS011;5176;42.622;25.386;2024-02-21T14:35:11;6.73;;;5.70;;
9438;SDS011;5176;42.622;25.386;2024-02-21T14:37:40;5.60;;;4.90;;
9438;SDS011;5176;42.622;25.386;2024-02-21T14:40:10;5.17;;;4.40;;
9438;SDS011;5176;42.622;25.386;2024-02-21T14:42:38;4.53;;;4.03;;
9438;SDS011;5176;42.622;25.386;2024-02-21T14:45:06;5.07;;;4.53;;
9438;SDS011;5176;42.622;25.386;2024-02-21T14:47:34;9.50;;;8.50;;